Time;durP1;ratioP1;P1;durP2;ratioP2;P2;SDS_P1;SDS_P2;PMS_P1;PMS_P2;Temp;Humidity;BMP_temperature;BMP_pressure;BME280_temperature;BME280_humidity;BME280_pressure;Samples;Min_cycle;Max_cycle;Signal;HPM_P1;HPM_P2
2022/05/12 00:02:22;;;;;;;11.82;9.15;;;22.00;57.40;;;;;;5027982;28;20028;-80
2022/05/12 00:04:48;;;;;;;10.70;9.05;;;22.00;57.60;;;;;;5030404;28;20029;-81
2022/05/12 00:07:14;;;;;;;10.30;8.73;;;22.00;57.40;;;;;;5031433;28;20032;-82
2022/05/12 00:09:40;;;;;;;11.15;8.45;;;21.90;58.40;;;;;;5032848;28;20108;-81
2022/05/12 00:12:06;;;;;;;11.18;8.70;;;21.90;58.50;;;;;;5013437;28;20032;-80
2022/05/12 00:14:32;;;;;;;10.30;8.60;;;22.00;58.50;;;;;;5022206;28;20049;-81
2022/05/12 00:16:57;;;;;;;10.90;9.38;;;22.20;58.00;;;;;;5029477;28;20021;-80
2022/05/12 00:19:27;;;;;;;12.30;9.20;;;22.40;57.60;;;;;;5032420;28;20087;-80
2022/05/12 00:21:54;;;;;;;10.30;9.20;;;22.30;57.50;;;;;;5027198;28;20079;-81
2022/05/12 00:24:20;;;;;;;11.18;9.05;;;22.30;57.00;;;;;;5013459;28;20029;-81
2022/05/12 00:26:45;;;;;;;13.68;9.07;;;22.20;57.00;;;;;;5015770;28;20025;-81
2022/05/12 00:29:13;;;;;;;11.50;10.25;;;22.10;56.80;;;;;;5032554;28;20105;-81
2022/05/12 00:31:42;;;;;;;11.82;9.52;;;21.80;57.30;;;;;;5016562;28;20026;-82
2022/05/12 00:34:09;;;;;;;14.60;9.68;;;21.80;57.70;;;;;;5023827;28;20045;-81
2022/05/12 00:36:35;;;;;;;12.55;9.80;;;21.80;57.40;;;;;;5007244;28;20026;-82
2022/05/12 00:39:01;;;;;;;12.75;9.60;;;21.70;57.70;;;;;;5032580;28;20037;-81
2022/05/12 00:41:27;;;;;;;11.45;9.50;;;21.90;57.50;;;;;;5033363;28;20022;-81
2022/05/12 00:43:56;;;;;;;11.90;9.95;;;21.60;57.80;;;;;;5014325;28;20089;-81
2022/05/12 00:46:35;;;;;;;10.48;9.02;;;21.70;57.90;;;;;;5021277;28;20115;-81
2022/05/12 00:49:18;;;;;;;11.15;9.45;;;21.60;57.80;;;;;;5032629;28;20561;-84
2022/05/12 00:52:11;;;;;;;10.95;9.20;;;21.70;57.50;;;;;;5015476;28;20380;-81
2022/05/12 00:54:45;;;;;;;12.15;9.35;;;21.70;58.40;;;;;;5032294;28;20038;-81
2022/05/12 00:57:15;;;;;;;13.82;9.85;;;21.80;58.10;;;;;;5015284;28;20392;-82
2022/05/12 00:59:41;;;;;;;12.32;10.32;;;21.60;57.40;;;;;;5032871;28;20034;-82
2022/05/12 01:02:12;;;;;;;13.43;10.43;;;21.50;57.80;;;;;;5014656;28;20021;-81
2022/05/12 01:04:45;;;;;;;13.80;9.40;;;21.70;57.30;;;;;;5014868;28;20399;-82
2022/05/12 01:07:11;;;;;;;12.38;9.57;;;21.60;57.30;;;;;;5033003;28;20028;-82
2022/05/12 01:09:37;;;;;;;11.77;9.65;;;21.60;57.70;;;;;;5015884;28;20033;-82
2022/05/12 01:12:03;;;;;;;14.30;10.00;;;21.60;57.40;;;;;;5015573;28;20523;-83
2022/05/12 01:14:29;;;;;;;11.07;8.75;;;21.50;57.60;;;;;;5028160;28;20443;-81
2022/05/12 01:16:57;;;;;;;9.95;8.75;;;21.40;58.00;;;;;;5011567;28;20034;-81
2022/05/12 01:19:26;;;;;;;11.98;9.45;;;21.20;58.60;;;;;;5002298;28;20345;-87
2022/05/12 01:21:53;;;;;;;11.55;9.95;;;21.20;58.10;;;;;;5014555;28;20041;-83
2022/05/12 01:24:22;;;;;;;11.20;10.00;;;20.80;58.30;;;;;;5032788;28;20104;-82
2022/05/12 01:26:48;;;;;;;13.27;10.32;;;20.80;58.70;;;;;;5015408;28;20025;-83
2022/05/12 01:29:14;;;;;;;14.40;10.63;;;20.90;58.70;;;;;;5012593;28;20040;-82
2022/05/12 01:31:41;;;;;;;12.18;10.48;;;20.60;59.10;;;;;;5013327;28;20064;-82
2022/05/12 01:34:09;;;;;;;13.27;10.30;;;20.40;59.10;;;;;;5032533;28;20029;-82
2022/05/12 01:36:36;;;;;;;12.23;10.52;;;20.30;59.50;;;;;;5014961;28;20120;-83
2022/05/12 01:39:03;;;;;;;13.25;11.27;;;20.20;59.60;;;;;;5014924;28;20026;-84
2022/05/12 01:41:28;;;;;;;14.18;12.00;;;20.10;60.20;;;;;;5016246;28;20053;-82
2022/05/12 01:43:54;;;;;;;14.38;12.18;;;20.10;60.60;;;;;;5017127;28;20491;-84
2022/05/12 01:46:20;;;;;;;15.35;11.57;;;20.30;60.30;;;;;;5030578;28;20472;-84
2022/05/12 01:48:46;;;;;;;14.32;11.77;;;20.20;60.20;;;;;;5035343;28;20101;-82
2022/05/12 01:51:12;;;;;;;14.95;11.73;;;20.10;60.30;;;;;;5033091;28;20021;-83
2022/05/12 01:53:38;;;;;;;16.17;12.48;;;20.00;60.40;;;;;;5018071;28;20361;-83
2022/05/12 01:56:05;;;;;;;15.38;12.60;;;19.90;60.80;;;;;;5016901;28;20408;-83
2022/05/12 01:58:31;;;;;;;16.70;12.75;;;20.30;60.60;;;;;;5030718;28;20028;-84
2022/05/12 02:00:57;;;;;;;16.60;13.10;;;20.40;59.90;;;;;;5018288;28;20022;-85
2022/05/12 02:03:23;;;;;;;15.48;11.57;;;20.30;60.20;;;;;;5036203;28;20049;-82
2022/05/12 02:05:49;;;;;;;16.55;12.13;;;20.20;60.30;;;;;;5019311;28;20036;-84
2022/05/12 02:08:17;;;;;;;14.85;12.02;;;20.10;60.10;;;;;;5036773;28;20030;-84
2022/05/12 02:10:47;;;;;;;15.35;11.85;;;20.10;60.00;;;;;;5036117;28;20026;-85
2022/05/12 02:13:13;;;;;;;;;;;20.00;60.20;;;;;;5019238;28;20041;-84
2022/05/12 02:15:40;;;;;;;16.13;12.18;;;20.00;60.50;;;;;;5035492;28;19963;-85
2022/05/12 02:18:09;;;;;;;14.40;12.32;;;20.00;61.10;;;;;;5017863;28;20024;-84
2022/05/12 02:20:35;;;;;;;13.38;11.85;;;20.00;61.20;;;;;;5018510;28;20036;-84
2022/05/12 02:23:01;;;;;;;14.82;12.23;;;20.00;60.90;;;;;;5017486;28;20100;-85
2022/05/12 02:25:26;;;;;;;14.00;11.20;;;20.10;60.40;;;;;;5030863;28;20033;-87
2022/05/12 02:27:55;;;;;;;14.90;11.93;;;20.40;60.00;;;;;;5015720;28;20080;-84
2022/05/12 02:30:27;;;;;;;14.68;11.15;;;20.40;59.60;;;;;;5028946;28;20033;-84
2022/05/12 02:32:53;;;;;;;15.98;12.23;;;20.40;59.90;;;;;;5035800;28;20472;-83
2022/05/12 02:35:20;;;;;;;14.35;11.75;;;19.90;61.80;;;;;;5035958;28;20063;-85
2022/05/12 02:37:46;;;;;;;12.57;11.23;;;20.20;61.40;;;;;;5035523;28;20029;-86
2022/05/12 02:40:15;;;;;;;15.43;12.05;;;20.40;60.00;;;;;;5035629;28;20032;-84
2022/05/12 02:42:41;;;;;;;15.90;12.45;;;20.50;59.20;;;;;;5035814;28;20032;-85
2022/05/12 02:45:07;;;;;;;14.45;11.88;;;20.30;59.10;;;;;;5018559;28;20037;-86
2022/05/12 02:47:33;;;;;;;15.05;11.73;;;20.20;59.80;;;;;;5025129;28;20465;-86
2022/05/12 02:49:59;;;;;;;15.02;11.88;;;20.10;60.00;;;;;;5029590;28;20122;-84
2022/05/12 02:52:24;;;;;;;16.85;11.95;;;20.00;59.70;;;;;;5034344;28;20029;-84
2022/05/12 02:54:50;;;;;;;17.30;11.65;;;20.20;59.90;;;;;;5017929;28;20361;-85
2022/05/12 02:57:16;;;;;;;16.08;11.98;;;20.40;59.70;;;;;;5034799;28;20384;-87
2022/05/12 02:59:42;;;;;;;15.82;11.02;;;20.50;59.20;;;;;;5035236;28;20080;-86
2022/05/12 03:02:07;;;;;;;16.00;11.93;;;20.60;59.70;;;;;;5035073;28;20029;-88
2022/05/12 03:04:35;;;;;;;14.40;11.13;;;20.70;59.40;;;;;;5013706;28;20029;-87
2022/05/12 03:07:01;;;;;;;14.13;11.60;;;20.70;58.70;;;;;;5028658;28;20025;-87
2022/05/12 03:09:26;;;;;;;13.73;11.82;;;20.50;59.60;;;;;;5014581;28;20571;-85
2022/05/12 03:11:52;;;;;;;17.42;12.88;;;20.50;58.70;;;;;;5016877;28;20018;-83
2022/05/12 03:14:18;;;;;;;14.68;11.02;;;20.60;58.10;;;;;;5022415;28;20389;-84
2022/05/12 03:16:43;;;;;;;13.20;10.63;;;20.70;58.30;;;;;;5017113;28;20029;-90
2022/05/12 03:19:10;;;;;;;14.98;11.52;;;20.60;57.90;;;;;;5034197;28;20024;-88
2022/05/12 03:21:36;;;;;;;14.20;11.50;;;20.30;58.30;;;;;;5016749;28;20033;-87
2022/05/12 03:24:04;;;;;;;16.58;12.20;;;20.20;58.60;;;;;;5034882;28;20108;-88
2022/05/12 03:26:37;;;;;;;14.00;11.07;;;20.30;59.00;;;;;;5034679;28;20384;-86
2022/05/12 03:29:04;;;;;;;14.80;12.60;;;20.10;59.20;;;;;;5013339;28;20112;-88
2022/05/12 03:31:30;;;;;;;15.52;12.25;;;20.20;59.20;;;;;;5024833;28;20040;-87
2022/05/12 03:33:55;;;;;;;14.20;12.25;;;20.20;59.50;;;;;;5017075;28;20029;-83
2022/05/12 03:36:22;;;;;;;14.50;11.68;;;20.20;59.60;;;;;;5012882;28;20038;-84
2022/05/12 03:38:48;;;;;;;15.63;12.02;;;20.40;59.40;;;;;;5031461;28;20033;-83
2022/05/12 03:41:14;;;;;;;15.25;13.05;;;20.30;59.40;;;;;;5016811;28;20025;-84
2022/05/12 03:46:23;;;;;;;16.17;12.43;;;20.40;59.00;;;;;;5034262;28;20036;-85
2022/05/12 03:48:50;;;;;;;16.45;12.98;;;20.50;59.30;;;;;;5016418;28;20017;-90
2022/05/12 03:51:16;;;;;;;19.55;13.38;;;20.60;59.30;;;;;;5016976;28;20494;-87
2022/05/12 03:53:41;;;;;;;15.95;13.05;;;20.50;59.70;;;;;;5016298;28;20112;-85
2022/05/12 03:56:08;;;;;;;16.08;12.95;;;20.30;59.70;;;;;;5033973;28;20033;-87
2022/05/12 03:58:34;;;;;;;16.13;14.02;;;20.40;59.90;;;;;;5034113;28;20025;-84
2022/05/12 04:01:01;;;;;;;16.55;12.90;;;20.70;59.90;;;;;;5016649;28;20026;-84
2022/05/12 04:03:27;;;;;;;18.23;12.93;;;20.80;59.80;;;;;;5016442;28;20025;-87
2022/05/12 04:05:55;;;;;;;16.95;14.13;;;21.00;59.70;;;;;;5015642;28;20028;-84
2022/05/12 04:08:21;;;;;;;17.52;13.43;;;21.20;59.80;;;;;;5031956;28;20028;-87
2022/05/12 04:10:49;;;;;;;15.23;11.68;;;21.40;59.60;;;;;;5009807;28;20032;-84
2022/05/12 04:13:16;;;;;;;15.70;12.57;;;21.50;59.60;;;;;;5029099;28;20045;-84
2022/05/12 04:15:42;;;;;;;17.60;12.30;;;21.50;59.40;;;;;;5012751;28;20042;-84
2022/05/12 04:18:07;;;;;;;15.02;12.73;;;21.50;59.60;;;;;;5028731;28;20025;-86
2022/05/12 04:20:36;;;;;;;16.30;12.57;;;21.70;59.90;;;;;;5015640;28;20500;-86
2022/05/12 04:23:03;;;;;;;17.95;13.45;;;21.80;59.90;;;;;;5015600;28;20051;-85
2022/05/12 04:25:29;;;;;;;17.67;13.43;;;21.90;60.20;;;;;;5016476;28;20029;-85
2022/05/12 04:27:54;;;;;;;19.40;14.05;;;22.00;60.00;;;;;;5014407;28;20021;-84
2022/05/12 04:30:25;;;;;;;16.20;12.65;;;22.10;60.00;;;;;;5032252;28;20041;-88
2022/05/12 04:32:52;;;;;;;17.98;13.95;;;22.20;59.90;;;;;;5016039;28;20112;-85
2022/05/12 04:35:20;;;;;;;16.50;12.48;;;22.30;59.70;;;;;;5013526;28;20037;-90
2022/05/12 04:37:49;;;;;;;15.07;12.60;;;22.40;59.80;;;;;;5027973;28;20025;-88
2022/05/12 04:40:25;;;;;;;16.05;13.13;;;22.40;59.90;;;;;;5025528;28;20030;-84
2022/05/12 04:42:53;;;;;;;20.73;13.55;;;22.40;60.10;;;;;;5012622;28;20057;-89
2022/05/12 04:45:21;;;;;;;17.58;13.35;;;22.50;60.00;;;;;;5013672;28;20490;-86
2022/05/12 04:47:48;;;;;;;18.08;14.02;;;22.60;60.20;;;;;;4996826;28;20036;-85
2022/05/12 04:50:27;;;;;;;17.05;12.95;;;22.70;60.10;;;;;;4996671;28;20046;-88
2022/05/12 04:52:53;;;;;;;16.65;13.50;;;22.70;60.00;;;;;;5016431;28;20361;-82
2022/05/12 04:55:19;;;;;;;17.50;13.05;;;22.90;59.70;;;;;;5033760;28;20037;-85
2022/05/12 04:57:48;;;;;;;16.92;12.43;;;22.90;59.60;;;;;;5026685;28;20034;-80
2022/05/12 05:00:23;;;;;;;15.52;12.07;;;23.00;59.60;;;;;;5013196;28;20026;-82
2022/05/12 05:02:49;;;;;;;15.20;12.40;;;22.90;59.60;;;;;;5013490;28;20429;-83
2022/05/12 05:05:15;;;;;;;15.02;12.13;;;22.80;60.10;;;;;;5014561;28;20056;-82
2022/05/12 05:07:41;;;;;;;15.32;11.98;;;23.10;59.60;;;;;;5013791;28;20026;-82
2022/05/12 05:10:07;;;;;;;16.40;12.52;;;23.30;59.40;;;;;;4997700;28;20432;-88
2022/05/12 05:12:33;;;;;;;15.93;11.95;;;23.50;59.20;;;;;;4996168;28;20026;-85
2022/05/12 05:14:59;;;;;;;15.88;12.13;;;23.80;59.10;;;;;;5021259;28;20057;-86
2022/05/12 05:17:27;;;;;;;18.90;12.38;;;23.90;58.80;;;;;;5019800;28;20060;-84
2022/05/12 05:19:53;;;;;;;17.55;12.93;;;24.00;58.50;;;;;;5019809;28;20548;-84
2022/05/12 05:22:19;;;;;;;15.95;12.88;;;24.10;57.80;;;;;;5020503;28;20029;-86
2022/05/12 05:24:44;;;;;;;14.93;12.88;;;24.20;57.50;;;;;;5036510;28;20021;-88
2022/05/12 05:27:10;;;;;;;18.25;14.02;;;24.30;57.00;;;;;;5017555;28;20022;-85
2022/05/12 05:29:42;;;;;;;15.07;13.13;;;24.40;56.70;;;;;;4999679;28;20026;-82
2022/05/12 05:32:12;;;;;;;15.60;12.32;;;24.50;56.60;;;;;;5008859;28;20541;-82
2022/05/12 05:34:38;;;;;;;13.88;12.25;;;24.50;57.30;;;;;;5003616;28;20168;-85
2022/05/12 05:37:04;;;;;;;16.58;12.38;;;24.40;57.60;;;;;;5025959;28;20092;-89
2022/05/12 05:39:29;;;;;;;14.27;12.27;;;24.40;57.20;;;;;;5027801;28;20060;-83
2022/05/12 05:42:09;;;;;;;14.48;12.32;;;23.80;57.90;;;;;;5010319;28;20029;-82
2022/05/12 05:44:35;;;;;;;15.68;12.40;;;23.50;59.00;;;;;;5007027;28;20087;-82
2022/05/12 05:47:01;;;;;;;15.18;13.15;;;23.10;58.40;;;;;;5008133;28;20030;-84
2022/05/12 05:49:28;;;;;;;17.17;13.32;;;23.10;58.90;;;;;;5035927;28;20077;-80
2022/05/12 05:54:39;;;;;;;17.95;13.23;;;24.20;57.80;;;;;;5036311;28;20067;-83
2022/05/12 05:57:04;;;;;;;17.73;12.57;;;24.50;57.60;;;;;;5034108;28;20439;-81
2022/05/12 05:59:30;;;;;;;16.38;13.00;;;24.60;57.00;;;;;;5036006;28;20053;-88
2022/05/12 06:01:57;;;;;;;16.30;12.98;;;24.70;56.80;;;;;;5035867;28;20376;-86
2022/05/12 06:04:23;;;;;;;14.77;12.85;;;24.00;58.10;;;;;;5036114;28;20100;-84
2022/05/12 06:06:49;;;;;;;14.57;12.63;;;23.50;59.30;;;;;;5017699;28;20029;-83
2022/05/12 06:09:15;;;;;;;16.13;12.77;;;23.80;59.90;;;;;;5018412;28;20095;-81
2022/05/12 06:11:43;;;;;;;15.90;12.00;;;23.30;59.80;;;;;;5018695;28;20116;-83
2022/05/12 06:14:09;;;;;;;17.73;12.43;;;23.30;60.10;;;;;;5035550;28;20057;-83
2022/05/12 06:16:35;;;;;;;15.50;13.65;;;23.40;60.10;;;;;;5032662;28;20087;-83
2022/05/12 06:19:01;;;;;;;14.93;11.95;;;23.90;59.80;;;;;;5034723;28;20072;-85
2022/05/12 06:21:27;;;;;;;17.20;12.75;;;23.60;59.80;;;;;;5017561;28;20042;-89
2022/05/12 06:23:53;;;;;;;17.00;13.10;;;22.90;62.00;;;;;;5017730;28;20033;-80
2022/05/12 06:26:20;;;;;;;15.85;12.57;;;23.60;60.80;;;;;;5015552;28;20526;-86
2022/05/12 06:28:47;;;;;;;15.23;12.68;;;24.30;59.50;;;;;;5009940;28;20057;-78
2022/05/12 06:31:24;;;;;;;16.55;12.68;;;24.00;59.90;;;;;;5024444;28;20025;-81
2022/05/12 06:33:50;;;;;;;17.08;12.38;;;24.40;59.30;;;;;;5031113;28;20029;-84
2022/05/12 06:36:16;;;;;;;15.55;12.05;;;24.00;58.70;;;;;;5017505;28;20543;-83
2022/05/12 06:38:41;;;;;;;18.02;12.32;;;23.30;61.00;;;;;;5033242;28;20029;-82
2022/05/12 06:41:09;;;;;;;14.18;12.18;;;23.50;60.60;;;;;;5015223;28;20392;-83
2022/05/12 06:43:36;;;;;;;15.48;11.27;;;23.40;61.80;;;;;;5017416;28;20128;-81
2022/05/12 06:46:02;;;;;;;14.32;12.38;;;23.40;62.10;;;;;;5035022;28;20075;-80
2022/05/12 06:48:28;;;;;;;15.55;11.85;;;23.50;60.90;;;;;;5034069;28;20036;-78
2022/05/12 06:50:54;;;;;;;13.55;11.27;;;23.60;61.90;;;;;;5016690;28;20045;-85
2022/05/12 06:53:20;;;;;;;16.83;12.13;;;23.80;61.60;;;;;;5017628;28;20057;-79
2022/05/12 06:55:46;;;;;;;15.10;12.13;;;24.10;61.10;;;;;;5034653;28;20108;-83
2022/05/12 06:58:17;;;;;;;15.27;12.35;;;23.90;60.80;;;;;;5035205;28;20463;-78
2022/05/12 07:00:43;;;;;;;13.73;12.13;;;23.90;60.90;;;;;;5017208;28;20033;-79
2022/05/12 07:03:12;;;;;;;14.90;11.57;;;24.20;60.80;;;;;;5002528;28;20760;-78
2022/05/12 07:05:39;;;;;;;15.98;12.07;;;24.50;60.20;;;;;;4997190;28;20030;-85
2022/05/12 07:08:06;;;;;;;14.15;11.75;;;24.60;60.20;;;;;;4997486;28;20535;-88
2022/05/12 07:10:32;;;;;;;14.80;11.60;;;25.00;60.10;;;;;;4998592;28;20026;-84
2022/05/12 07:12:58;;;;;;;14.77;12.10;;;24.90;59.40;;;;;;5014486;28;20478;-78
2022/05/12 07:15:27;;;;;;;16.23;11.57;;;25.30;60.50;;;;;;5014682;28;20452;-84
2022/05/12 07:17:55;;;;;;;15.60;12.30;;;25.30;59.40;;;;;;4997529;28;20018;-86
2022/05/12 07:28:36;;;;;;;15.30;11.52;;;26.60;56.90;;;;;;5015388;28;20057;-80
2022/05/12 07:31:05;;;;;;;15.38;10.20;;;26.10;57.60;;;;;;5022265;28;20091;-77
2022/05/12 07:33:34;;;;;;;14.13;10.70;;;26.40;57.10;;;;;;5014116;28;20113;-78
2022/05/12 07:36:02;;;;;;;13.43;10.23;;;26.70;56.60;;;;;;5007255;28;20394;-75
2022/05/12 07:38:27;;;;;;;14.50;11.10;;;26.80;57.20;;;;;;5007763;28;20463;-78
2022/05/12 07:40:54;;;;;;;13.07;10.10;;;27.00;57.20;;;;;;5032322;28;20037;-91
2022/05/12 07:43:20;;;;;;;19.70;13.02;;;26.80;57.40;;;;;;5033251;28;20040;-81
2022/05/12 07:45:47;;;;;;;16.45;10.15;;;27.10;58.40;;;;;;5009496;28;20029;-78
2022/05/12 07:48:13;;;;;;;15.43;9.80;;;27.80;56.90;;;;;;5027261;28;20353;-86
2022/05/12 07:50:40;;;;;;;11.85;8.50;;;27.80;56.90;;;;;;4996339;28;20088;-88
2022/05/12 07:53:07;;;;;;;15.25;9.50;;;27.20;56.80;;;;;;5002886;28;20061;-79
2022/05/12 07:55:34;;;;;;;13.55;9.85;;;27.00;57.50;;;;;;4319885;28;10000717;-82
2022/05/12 07:58:00;;;;;;;12.93;8.77;;;27.60;57.20;;;;;;5006965;28;20022;-91
2022/05/12 08:00:26;;;;;;;11.10;8.88;;;28.20;56.30;;;;;;5004546;28;20113;-84
2022/05/12 08:02:52;;;;;;;14.25;9.45;;;28.20;55.70;;;;;;5007416;28;20065;-83
2022/05/12 08:05:18;;;;;;;13.68;8.18;;;28.30;56.10;;;;;;5012044;28;20030;-79
2022/05/12 08:07:47;;;;;;;10.73;8.00;;;28.30;54.90;;;;;;5012214;28;20392;-78
2022/05/12 08:10:13;;;;;;;11.48;8.25;;;28.30;54.80;;;;;;5011251;28;20022;-78
2022/05/12 08:12:39;;;;;;;12.93;8.93;;;28.50;55.90;;;;;;5010002;28;20064;-80
2022/05/12 08:15:05;;;;;;;15.73;8.75;;;29.00;56.50;;;;;;5011360;28;20088;-79
2022/05/12 08:17:31;;;;;;;9.55;7.70;;;29.20;54.10;;;;;;5010710;28;20029;-82
2022/05/12 08:19:58;;;;;;;10.45;8.05;;;29.20;54.10;;;;;;5001383;28;20034;-81
2022/05/12 08:22:24;;;;;;;10.25;8.10;;;28.90;54.40;;;;;;4992970;28;20097;-87
2022/05/12 08:24:51;;;;;;;10.95;7.60;;;28.80;54.20;;;;;;4992594;28;20433;-93
2022/05/12 08:27:17;;;;;;;10.38;7.72;;;28.90;55.00;;;;;;4990203;28;20397;-79
2022/05/12 08:29:43;;;;;;;10.82;8.05;;;29.30;54.20;;;;;;5004073;28;20500;-80
2022/05/12 08:32:09;;;;;;;8.63;6.63;;;29.80;54.80;;;;;;5010738;28;20049;-79
2022/05/12 08:34:35;;;;;;;8.77;6.90;;;29.60;51.70;;;;;;5011317;28;20038;-78
2022/05/12 08:37:15;;;;;;;9.63;6.85;;;29.60;52.80;;;;;;5011073;28;20017;-85
2022/05/12 08:39:44;;;;;;;9.02;6.50;;;29.10;53.10;;;;;;5010381;28;20034;-82
2022/05/12 08:42:28;;;;;;;9.27;6.20;;;28.70;53.10;;;;;;5010866;28;20472;-88
2022/05/12 08:44:56;;;;;;;10.85;7.78;;;28.50;53.40;;;;;;5009474;28;20377;-84
2022/05/12 08:47:35;;;;;;;9.52;7.18;;;28.00;53.80;;;;;;5005595;28;20113;-83
2022/05/12 08:50:03;;;;;;;10.25;7.25;;;28.00;54.50;;;;;;5005645;28;20042;-84
2022/05/12 08:52:47;;;;;;;11.02;7.65;;;28.20;54.60;;;;;;5014280;28;20058;-79
2022/05/12 08:55:15;;;;;;;9.57;7.72;;;28.30;54.70;;;;;;5009403;28;20045;-80
2022/05/12 08:58:02;;;;;;;11.18;6.70;;;28.30;54.70;;;;;;5003995;28;20077;-88
2022/05/12 09:00:36;;;;;;;9.80;7.28;;;28.30;56.00;;;;;;4995707;28;20797;-83
2022/05/12 09:03:23;;;;;;;7.90;6.78;;;29.00;55.20;;;;;;5011628;28;20022;-77
2022/05/12 09:06:16;;;;;;;11.82;6.90;;;29.50;53.40;;;;;;5013415;28;20033;-80
2022/05/12 09:09:03;;;;;;;14.95;6.90;;;30.10;52.00;;;;;;5011549;28;20030;-80
2022/05/12 09:11:53;;;;;;;15.05;6.90;;;30.40;52.20;;;;;;4994336;28;20027;-91
2022/05/12 09:15:01;;;;;;;8.60;5.93;;;30.90;51.80;;;;;;4994619;28;20113;-80
2022/05/12 09:17:38;;;;;;;8.68;6.28;;;31.10;51.30;;;;;;4998846;28;20496;-79
2022/05/12 09:20:07;;;;;;;11.98;6.40;;;31.20;51.90;;;;;;5004964;28;20022;-79
2022/05/12 09:22:32;;;;;;;11.50;6.85;;;31.60;51.90;;;;;;5011012;28;20121;-86
2022/05/12 09:24:58;;;;;;;9.30;5.90;;;31.90;50.90;;;;;;4994883;28;20022;-79
2022/05/12 09:27:33;;;;;;;9.18;6.10;;;31.80;49.30;;;;;;5013220;28;20038;-81
2022/05/12 09:30:00;;;;;;;10.77;5.93;;;32.00;49.80;;;;;;5014862;28;20093;-85
2022/05/12 09:32:31;;;;;;;7.07;5.47;;;31.20;51.50;;;;;;5013059;28;20470;-86
2022/05/12 09:35:20;;;;;;;8.73;5.60;;;31.30;51.80;;;;;;5014160;28;20046;-83
2022/05/12 09:37:47;;;;;;;9.02;5.45;;;31.00;51.40;;;;;;5002883;28;20031;-83
2022/05/12 09:40:29;;;;;;;7.10;4.88;;;31.00;50.90;;;;;;4992448;28;20117;-85
2022/05/12 09:42:57;;;;;;;7.95;5.22;;;31.80;51.10;;;;;;5006966;28;20080;-81
2022/05/12 09:45:33;;;;;;;11.63;5.40;;;32.00;50.20;;;;;;5013664;28;20040;-91
2022/05/12 09:48:17;;;;;;;6.70;5.30;;;31.60;48.10;;;;;;5013219;28;20030;-78
2022/05/12 09:50:43;;;;;;;7.35;5.15;;;31.80;49.00;;;;;;5029916;28;20087;-83
2022/05/12 09:53:11;;;;;;;8.52;4.85;;;32.10;49.60;;;;;;5014710;28;20034;-79
2022/05/12 09:55:55;;;;;;;7.97;5.30;;;32.30;48.00;;;;;;5013877;28;20044;-77
2022/05/12 09:58:25;;;;;;;8.65;4.75;;;32.80;47.60;;;;;;5030345;28;20073;-85
2022/05/12 10:01:12;;;;;;;8.07;4.65;;;33.10;49.00;;;;;;5001218;28;20491;-79
2022/05/12 10:09:21;;;;;;;9.73;4.95;;;33.60;47.40;;;;;;5015632;28;20096;-78
2022/05/12 10:11:53;;;;;;;9.07;4.60;;;33.30;47.40;;;;;;5024016;28;20029;-82
2022/05/12 10:14:36;;;;;;;7.13;4.90;;;33.10;46.60;;;;;;5030175;28;20033;-76
2022/05/12 10:17:09;;;;;;;9.20;4.70;;;33.20;46.60;;;;;;5018537;28;20022;-79
2022/05/12 10:19:37;;;;;;;12.90;4.55;;;33.30;46.70;;;;;;5019652;28;20373;-82
2022/05/12 10:22:22;;;;;;;7.25;4.45;;;33.50;47.20;;;;;;5014556;28;20528;-75
2022/05/12 10:25:16;;;;;;;6.78;4.35;;;33.60;47.10;;;;;;5007048;28;20021;-80
2022/05/12 10:27:48;;;;;;;6.57;4.28;;;33.10;46.10;;;;;;5015744;28;20036;-86
2022/05/12 10:30:36;;;;;;;6.45;4.40;;;33.20;47.00;;;;;;5030431;28;20040;-82
2022/05/12 10:33:23;;;;;;;8.90;4.70;;;33.50;47.20;;;;;;5013424;28;20036;-81
2022/05/12 10:36:18;;;;;;;9.35;4.45;;;33.70;47.60;;;;;;5013944;28;20045;-78
2022/05/12 10:38:43;;;;;;;9.18;4.70;;;34.00;47.10;;;;;;5008200;28;20072;-80
2022/05/12 10:41:21;;;;;;;8.65;4.30;;;33.80;46.00;;;;;;5034255;28;20551;-81
2022/05/12 10:44:17;;;;;;;7.15;4.45;;;34.40;45.50;;;;;;5034105;28;20037;-86
2022/05/12 10:47:12;;;;;;;8.77;5.10;;;34.60;45.80;;;;;;4953444;28;20037;-78
2022/05/12 10:49:51;;;;;;;5.35;4.18;;;34.60;45.10;;;;;;4929905;28;1253989;-75
2022/05/12 10:52:56;;;;;;;8.63;5.10;;;34.60;45.30;;;;;;4957729;28;20043;-75
2022/05/12 10:56:18;;;;;;;5.88;4.57;;;34.50;46.30;;;;;;4955286;28;20043;-82
2022/05/12 10:59:09;;;;;;;7.22;4.63;;;34.40;45.80;;;;;;4896567;29;20119;-82
2022/05/12 11:01:40;;;;;;;10.20;4.50;;;34.30;46.40;;;;;;4879932;29;20040;-81
2022/05/12 11:04:24;;;;;;;12.25;6.03;;;34.40;46.60;;;;;;4863630;29;20072;-78
2022/05/12 11:06:55;;;;;;;6.80;4.20;;;34.60;46.50;;;;;;4893817;29;20039;-89
2022/05/12 11:09:24;;;;;;;9.20;4.65;;;34.50;46.00;;;;;;4897907;29;20024;-75
2022/05/12 11:11:51;;;;;;;8.35;4.00;;;34.40;45.80;;;;;;4897238;29;20404;-82
2022/05/12 11:14:34;;;;;;;10.68;4.68;;;34.60;46.30;;;;;;4895271;29;20400;-79
2022/05/12 11:17:08;;;;;;;6.38;4.60;;;34.60;46.60;;;;;;4900365;29;20059;-84
2022/05/12 11:19:36;;;;;;;7.03;4.20;;;34.40;46.00;;;;;;4896695;29;20124;-84
2022/05/12 11:22:07;;;;;;;6.75;4.30;;;34.40;46.10;;;;;;4881373;29;20036;-80
2022/05/12 11:24:59;;;;;;;10.32;4.57;;;34.00;46.30;;;;;;4932636;29;20067;-79
2022/05/12 11:27:44;;;;;;;13.15;5.40;;;33.80;46.40;;;;;;4938041;29;20031;-77
2022/05/12 11:30:35;;;;;;;7.32;4.75;;;33.50;46.00;;;;;;4954023;29;20028;-80
2022/05/12 11:33:38;;;;;;;13.00;5.05;;;33.70;46.70;;;;;;4988280;28;20037;-80
2022/05/12 11:36:07;;;;;;;7.45;4.40;;;33.70;46.40;;;;;;5033800;28;20046;-83
2022/05/12 11:38:44;;;;;;;9.95;4.55;;;33.70;46.80;;;;;;5033991;28;20376;-85
2022/05/12 11:41:19;;;;;;;5.25;4.38;;;34.00;46.50;;;;;;5016504;28;20025;-83
2022/05/12 11:46:34;;;;;;;8.85;4.40;;;34.10;46.80;;;;;;5033991;28;20402;-80
2022/05/12 11:49:08;;;;;;;10.93;4.38;;;34.20;45.80;;;;;;5033842;28;20025;-81
2022/05/12 11:51:37;;;;;;;7.47;4.80;;;34.30;44.90;;;;;;5013655;28;20092;-79
2022/05/12 11:54:10;;;;;;;8.18;4.45;;;34.70;45.50;;;;;;5013816;28;20088;-78
2022/05/12 11:56:43;;;;;;;11.02;4.25;;;35.20;45.40;;;;;;5012642;28;20041;-79
2022/05/12 11:59:30;;;;;;;7.55;4.30;;;34.90;44.20;;;;;;4660468;28;9999870;-79
2022/05/12 12:01:59;;;;;;;6.88;4.47;;;34.80;44.80;;;;;;4992827;28;20113;-82
2022/05/12 12:04:37;;;;;;;9.90;4.65;;;34.70;44.80;;;;;;4994007;28;20388;-80
2022/05/12 12:07:12;;;;;;;8.13;4.43;;;34.00;45.50;;;;;;4994129;28;20030;-82
2022/05/12 12:09:38;;;;;;;8.18;4.82;;;34.00;45.80;;;;;;4993947;28;20042;-87
2022/05/12 12:12:10;;;;;;;7.28;4.20;;;34.00;46.00;;;;;;4992733;28;20054;-82
2022/05/12 12:14:50;;;;;;;7.82;4.70;;;34.50;45.50;;;;;;4993623;28;20128;-81
2022/05/12 12:17:25;;;;;;;7.18;4.03;;;34.80;46.20;;;;;;4993841;28;20111;-77
2022/05/12 12:19:52;;;;;;;7.55;4.22;;;34.90;45.20;;;;;;4994018;28;20034;-82
2022/05/12 12:22:37;;;;;;;6.43;4.20;;;34.90;45.30;;;;;;4992346;28;20046;-83
2022/05/12 12:25:20;;;;;;;6.72;4.10;;;34.90;45.00;;;;;;4992397;28;20053;-77
2022/05/12 12:27:52;;;;;;;7.25;4.50;;;34.90;45.20;;;;;;4992272;28;20465;-79
2022/05/12 12:30:34;;;;;;;6.88;4.05;;;35.10;44.80;;;;;;4993805;28;20085;-78
2022/05/12 12:33:25;;;;;;;7.55;4.35;;;35.20;44.60;;;;;;4994032;28;20023;-80
2022/05/12 12:36:01;;;;;;;7.63;4.10;;;34.90;44.00;;;;;;4993223;28;20039;-79
2022/05/12 12:38:46;;;;;;;7.88;3.75;;;34.60;43.80;;;;;;4992640;28;20388;-80
2022/05/12 12:41:31;;;;;;;7.57;4.18;;;34.30;44.70;;;;;;4993966;28;20054;-86
2022/05/12 12:44:01;;;;;;;10.07;3.58;;;34.30;44.70;;;;;;4993732;28;20029;-80
2022/05/12 12:46:36;;;;;;;8.50;4.30;;;34.40;44.00;;;;;;4992264;28;20389;-80
2022/05/12 12:49:24;;;;;;;5.85;3.90;;;34.60;44.00;;;;;;4993540;28;20026;-80
2022/05/12 12:52:03;;;;;;;6.40;3.95;;;34.80;44.30;;;;;;5013191;28;20121;-81
2022/05/12 12:57:23;;;;;;;6.07;3.80;;;35.10;43.90;;;;;;5013640;28;20045;-78
2022/05/12 12:59:59;;;;;;;9.20;4.10;;;34.70;44.10;;;;;;4995615;28;20030;-76
2022/05/12 13:02:41;;;;;;;8.65;3.85;;;34.80;44.10;;;;;;4995532;28;20026;-82
2022/05/12 13:05:19;;;;;;;9.73;3.47;;;34.90;45.20;;;;;;5012952;28;20054;-81
2022/05/12 13:08:03;;;;;;;5.28;3.50;;;34.80;43.90;;;;;;5013118;28;20449;-80
2022/05/12 13:10:40;;;;;;;7.35;4.10;;;34.70;44.70;;;;;;5012621;28;20089;-77
2022/05/12 13:13:06;;;;;;;8.25;3.70;;;34.90;44.90;;;;;;4995356;28;20030;-86
2022/05/12 13:15:35;;;;;;;8.90;4.13;;;35.10;44.20;;;;;;4995418;28;20037;-82
2022/05/12 13:18:05;;;;;;;7.07;3.83;;;35.20;44.50;;;;;;4995037;28;20715;-83
2022/05/12 13:20:38;;;;;;;6.57;3.80;;;35.10;43.30;;;;;;4995164;28;20447;-85